This is the latest recevied weather packets stored in our database for station/object VE3GIF. If no packets are shown the sender has not sent any weather packets the latest 10 day(s).
| Time | Temp. | Humidity | Pressure | Rain* | Wind** | Luminosity | Snow |
|---|---|---|---|---|---|---|---|
| 1777930844 | 21.67° C | 45% | 1000.3 hPa | 0 mm | - | - | - |
| 1777930544 | 21.67° C | 45% | 1000.3 hPa | 0 mm | - | - | - |
| 1777930243 | 21.11° C | 46% | 1000.3 hPa | 0 mm | - | - | - |
| 1777929643 | 21.11° C | 46% | 1000.2 hPa | 0 mm | - | - | - |
| 1777929342 | 21.11° C | 46% | 1000.2 hPa | 0 mm | - | - | - |
| 1777929042 | 21.11° C | 46% | 1000.2 hPa | 0 mm | - | - | - |
| 1777928441 | 20.56° C | 48% | 1000.2 hPa | 0 mm | - | - | - |
| 1777928141 | 20.56° C | 48% | 1000.2 hPa | 0 mm | - | - | - |
| 1777927841 | 20.56° C | 48% | 1000.2 hPa | 0 mm | - | - | - |
| 1777927541 | 20.56° C | 48% | 1000.3 hPa | 0 mm | - | - | - |
| 1777926940 | 20° C | 50% | 1000.5 hPa | 0 mm | - | - | - |
| 1777926640 | 20° C | 51% | 1000.4 hPa | 0 mm | - | - | - |
| 1777926339 | 19.44° C | 51% | 1000.5 hPa | 0 mm | - | - | - |
| 1777924238 | 17.22° C | 57% | 1000.9 hPa | 0 mm | - | - | - |
| 1777923937 | 17.22° C | 57% | 1001 hPa | 0 mm | - | - | - |
| 1777923637 | 17.22° C | 58% | 1001.2 hPa | 0 mm | - | - | - |
| 1777923036 | 17.22° C | 57% | 1001.3 hPa | 0 mm | - | - | - |
| 1777900515 | 13.33° C | 63% | 1004.1 hPa | 0 mm | - | - | - |
| 1777899914 | 13.33° C | 63% | 1004 hPa | 0 mm | - | - | - |
| 1777899614 | 13.33° C | 63% | 1004.1 hPa | 0 mm | - | - | - |
| 1777899314 | 12.78° C | 63% | 1004.2 hPa | 0 mm | - | - | - |
| 1777899014 | 12.78° C | 64% | 1004.1 hPa | 0 mm | - | - | - |
| 1777898713 | 12.78° C | 64% | 1004.2 hPa | 0 mm | - | - | - |
| 1777898413 | 12.78° C | 64% | 1004.2 hPa | 0 mm | - | - | - |
| 1777898113 | 12.78° C | 64% | 1004.3 hPa | 0 mm | - | - | - |
* Rain latest hour (hover to see other rain measurements)
** Current wind speed in m/s (hover to see current wind gust speed)